sensor_id;sensor_type;location;lat;lon;timestamp;P1;durP1;ratioP1;P2;durP2;ratioP2
71091;SDS011;58751;50.708;7.134;2023-04-12T00:01:21;6.47;;;1.87;;
71091;SDS011;58751;50.708;7.134;2023-04-12T00:03:46;7.60;;;2.97;;
71091;SDS011;58751;50.708;7.134;2023-04-12T00:06:11;5.80;;;1.70;;
71091;SDS011;58751;50.708;7.134;2023-04-12T00:08:36;1.60;;;1.20;;
71091;SDS011;58751;50.708;7.134;2023-04-12T00:11:02;2.27;;;1.10;;
71091;SDS011;58751;50.708;7.134;2023-04-12T00:13:27;6.47;;;1.80;;
71091;SDS011;58751;50.708;7.134;2023-04-12T00:15:53;2.83;;;1.63;;
71091;SDS011;58751;50.708;7.134;2023-04-12T00:18:19;7.70;;;1.33;;
71091;SDS011;58751;50.708;7.134;2023-04-12T00:20:44;3.47;;;1.50;;
71091;SDS011;58751;50.708;7.134;2023-04-12T00:23:10;2.17;;;1.30;;
71091;SDS011;58751;50.708;7.134;2023-04-12T00:25:35;1.90;;;1.53;;
71091;SDS011;58751;50.708;7.134;2023-04-12T00:28:00;1.83;;;1.20;;
71091;SDS011;58751;50.708;7.134;2023-04-12T00:30:25;3.37;;;2.03;;
71091;SDS011;58751;50.708;7.134;2023-04-12T00:32:51;1.50;;;1.40;;
71091;SDS011;58751;50.708;7.134;2023-04-12T00:35:17;4.70;;;1.30;;
71091;SDS011;58751;50.708;7.134;2023-04-12T00:37:42;1.77;;;0.88;;
71091;SDS011;58751;50.708;7.134;2023-04-12T00:40:08;1.87;;;1.03;;
71091;SDS011;58751;50.708;7.134;2023-04-12T00:42:34;3.37;;;1.43;;
71091;SDS011;58751;50.708;7.134;2023-04-12T00:44:59;2.25;;;1.40;;
71091;SDS011;58751;50.708;7.134;2023-04-12T00:47:25;3.27;;;2.83;;
71091;SDS011;58751;50.708;7.134;2023-04-12T00:49:50;2.57;;;1.33;;
71091;SDS011;58751;50.708;7.134;2023-04-12T00:52:16;4.77;;;1.37;;
71091;SDS011;58751;50.708;7.134;2023-04-12T00:54:42;5.70;;;1.40;;
71091;SDS011;58751;50.708;7.134;2023-04-12T00:57:07;4.67;;;1.87;;
71091;SDS011;58751;50.708;7.134;2023-04-12T00:59:33;1.60;;;1.03;;
71091;SDS011;58751;50.708;7.134;2023-04-12T01:01:58;6.40;;;1.30;;
71091;SDS011;58751;50.708;7.134;2023-04-12T01:04:23;1.73;;;1.10;;
71091;SDS011;58751;50.708;7.134;2023-04-12T01:06:52;2.60;;;1.63;;
71091;SDS011;58751;50.708;7.134;2023-04-12T01:09:28;1.98;;;1.50;;
71091;SDS011;58751;50.708;7.134;2023-04-12T01:11:57;4.68;;;1.25;;
71091;SDS011;58751;50.708;7.134;2023-04-12T01:14:27;4.75;;;1.50;;
71091;SDS011;58751;50.708;7.134;2023-04-12T01:16:54;2.10;;;1.33;;
71091;SDS011;58751;50.708;7.134;2023-04-12T01:19:32;3.35;;;1.38;;
71091;SDS011;58751;50.708;7.134;2023-04-12T01:22:05;5.18;;;1.55;;
71091;SDS011;58751;50.708;7.134;2023-04-12T01:24:35;3.22;;;1.48;;
71091;SDS011;58751;50.708;7.134;2023-04-12T01:27:02;3.05;;;1.35;;
71091;SDS011;58751;50.708;7.134;2023-04-12T01:29:28;4.10;;;1.20;;
71091;SDS011;58751;50.708;7.134;2023-04-12T01:31:59;1.92;;;1.15;;
71091;SDS011;58751;50.708;7.134;2023-04-12T01:34:25;2.78;;;1.20;;
71091;SDS011;58751;50.708;7.134;2023-04-12T01:36:52;2.65;;;1.08;;
71091;SDS011;58751;50.708;7.134;2023-04-12T01:39:18;2.45;;;0.93;;
71091;SDS011;58751;50.708;7.134;2023-04-12T01:41:44;2.57;;;1.40;;
71091;SDS011;58751;50.708;7.134;2023-04-12T01:44:11;2.70;;;1.30;;
71091;SDS011;58751;50.708;7.134;2023-04-12T01:46:37;3.28;;;1.10;;
71091;SDS011;58751;50.708;7.134;2023-04-12T01:49:02;4.95;;;1.20;;
71091;SDS011;58751;50.708;7.134;2023-04-12T01:51:35;2.87;;;1.50;;
71091;SDS011;58751;50.708;7.134;2023-04-12T01:54:05;1.27;;;1.15;;
71091;SDS011;58751;50.708;7.134;2023-04-12T01:56:31;3.88;;;1.83;;
71091;SDS011;58751;50.708;7.134;2023-04-12T01:58:58;1.30;;;1.20;;
71091;SDS011;58751;50.708;7.134;2023-04-12T02:01:24;1.95;;;1.30;;
71091;SDS011;58751;50.708;7.134;2023-04-12T02:03:51;1.20;;;1.10;;
71091;SDS011;58751;50.708;7.134;2023-04-12T02:06:17;2.03;;;1.08;;
71091;SDS011;58751;50.708;7.134;2023-04-12T02:08:43;3.47;;;1.40;;
71091;SDS011;58751;50.708;7.134;2023-04-12T02:11:08;1.90;;;1.30;;
71091;SDS011;58751;50.708;7.134;2023-04-12T02:13:34;1.37;;;1.13;;
71091;SDS011;58751;50.708;7.134;2023-04-12T02:15:59;4.30;;;1.73;;
71091;SDS011;58751;50.708;7.134;2023-04-12T02:18:24;2.80;;;1.67;;
71091;SDS011;58751;50.708;7.134;2023-04-12T02:20:51;3.80;;;1.27;;
71091;SDS011;58751;50.708;7.134;2023-04-12T02:23:16;4.00;;;3.60;;
71091;SDS011;58751;50.708;7.134;2023-04-12T02:25:41;4.57;;;1.90;;
71091;SDS011;58751;50.708;7.134;2023-04-12T02:28:06;4.03;;;2.33;;
71091;SDS011;58751;50.708;7.134;2023-04-12T02:30:32;2.27;;;1.67;;
71091;SDS011;58751;50.708;7.134;2023-04-12T02:32:57;2.50;;;2.30;;
71091;SDS011;58751;50.708;7.134;2023-04-12T02:35:22;3.93;;;1.73;;
71091;SDS011;58751;50.708;7.134;2023-04-12T02:37:48;3.07;;;1.40;;
71091;SDS011;58751;50.708;7.134;2023-04-12T02:40:14;4.93;;;1.42;;
71091;SDS011;58751;50.708;7.134;2023-04-12T02:42:39;2.40;;;1.50;;
71091;SDS011;58751;50.708;7.134;2023-04-12T02:45:05;3.27;;;2.10;;
71091;SDS011;58751;50.708;7.134;2023-04-12T02:47:30;4.43;;;2.17;;
71091;SDS011;58751;50.708;7.134;2023-04-12T02:49:56;2.40;;;1.60;;
71091;SDS011;58751;50.708;7.134;2023-04-12T02:52:21;2.13;;;1.60;;
71091;SDS011;58751;50.708;7.134;2023-04-12T02:54:48;4.27;;;1.77;;
71091;SDS011;58751;50.708;7.134;2023-04-12T02:57:13;4.55;;;1.23;;
71091;SDS011;58751;50.708;7.134;2023-04-12T02:59:39;2.03;;;1.80;;
71091;SDS011;58751;50.708;7.134;2023-04-12T03:02:04;4.67;;;2.20;;
71091;SDS011;58751;50.708;7.134;2023-04-12T03:04:29;3.30;;;1.67;;
71091;SDS011;58751;50.708;7.134;2023-04-12T03:06:54;3.53;;;1.80;;
71091;SDS011;58751;50.708;7.134;2023-04-12T03:09:19;1.70;;;1.60;;
71091;SDS011;58751;50.708;7.134;2023-04-12T03:11:48;2.60;;;2.27;;
71091;SDS011;58751;50.708;7.134;2023-04-12T03:14:13;2.90;;;2.28;;
71091;SDS011;58751;50.708;7.134;2023-04-12T03:16:39;2.60;;;1.60;;
71091;SDS011;58751;50.708;7.134;2023-04-12T03:19:04;4.20;;;2.30;;
71091;SDS011;58751;50.708;7.134;2023-04-12T03:21:29;3.33;;;1.53;;
71091;SDS011;58751;50.708;7.134;2023-04-12T03:23:54;4.33;;;1.90;;
71091;SDS011;58751;50.708;7.134;2023-04-12T03:26:19;2.80;;;1.90;;
71091;SDS011;58751;50.708;7.134;2023-04-12T03:28:46;2.97;;;2.40;;
71091;SDS011;58751;50.708;7.134;2023-04-12T03:31:11;5.20;;;4.43;;
71091;SDS011;58751;50.708;7.134;2023-04-12T03:33:36;4.77;;;2.50;;
71091;SDS011;58751;50.708;7.134;2023-04-12T03:36:02;4.57;;;2.20;;
71091;SDS011;58751;50.708;7.134;2023-04-12T03:38:27;4.37;;;2.60;;
71091;SDS011;58751;50.708;7.134;2023-04-12T03:40:52;8.63;;;2.80;;
71091;SDS011;58751;50.708;7.134;2023-04-12T03:43:18;4.80;;;2.27;;
71091;SDS011;58751;50.708;7.134;2023-04-12T03:45:44;4.60;;;3.03;;
71091;SDS011;58751;50.708;7.134;2023-04-12T03:48:09;4.63;;;2.67;;
71091;SDS011;58751;50.708;7.134;2023-04-12T03:50:35;4.20;;;2.90;;
71091;SDS011;58751;50.708;7.134;2023-04-12T03:53:00;2.43;;;2.23;;
71091;SDS011;58751;50.708;7.134;2023-04-12T03:55:25;4.47;;;2.50;;
71091;SDS011;58751;50.708;7.134;2023-04-12T03:57:50;4.63;;;2.40;;
71091;SDS011;58751;50.708;7.134;2023-04-12T04:00:15;2.73;;;1.90;;
71091;SDS011;58751;50.708;7.134;2023-04-12T04:02:42;5.07;;;2.83;;
71091;SDS011;58751;50.708;7.134;2023-04-12T04:05:07;4.22;;;1.80;;
71091;SDS011;58751;50.708;7.134;2023-04-12T04:07:32;2.13;;;1.93;;
71091;SDS011;58751;50.708;7.134;2023-04-12T04:09:58;4.10;;;1.70;;
71091;SDS011;58751;50.708;7.134;2023-04-12T04:12:23;2.70;;;2.00;;
71091;SDS011;58751;50.708;7.134;2023-04-12T04:14:49;2.27;;;2.07;;
71091;SDS011;58751;50.708;7.134;2023-04-12T04:17:14;3.63;;;2.60;;
71091;SDS011;58751;50.708;7.134;2023-04-12T04:19:40;2.93;;;1.97;;
71091;SDS011;58751;50.708;7.134;2023-04-12T04:22:05;4.43;;;2.55;;
71091;SDS011;58751;50.708;7.134;2023-04-12T04:24:31;4.27;;;2.87;;
71091;SDS011;58751;50.708;7.134;2023-04-12T04:26:56;2.30;;;2.10;;
71091;SDS011;58751;50.708;7.134;2023-04-12T04:29:21;3.67;;;2.00;;
71091;SDS011;58751;50.708;7.134;2023-04-12T04:31:46;1.83;;;1.60;;
71091;SDS011;58751;50.708;7.134;2023-04-12T04:34:12;2.37;;;1.90;;
71091;SDS011;58751;50.708;7.134;2023-04-12T04:36:39;2.20;;;1.93;;
71091;SDS011;58751;50.708;7.134;2023-04-12T04:39:04;2.92;;;1.83;;
71091;SDS011;58751;50.708;7.134;2023-04-12T04:41:30;4.13;;;2.10;;
71091;SDS011;58751;50.708;7.134;2023-04-12T04:43:55;3.33;;;2.90;;
71091;SDS011;58751;50.708;7.134;2023-04-12T04:46:20;2.20;;;2.00;;
71091;SDS011;58751;50.708;7.134;2023-04-12T04:48:45;4.80;;;2.60;;
71091;SDS011;58751;50.708;7.134;2023-04-12T04:51:11;3.50;;;2.50;;
71091;SDS011;58751;50.708;7.134;2023-04-12T04:53:37;4.10;;;2.33;;
71091;SDS011;58751;50.708;7.134;2023-04-12T04:56:03;2.20;;;2.03;;
71091;SDS011;58751;50.708;7.134;2023-04-12T04:58:28;2.43;;;2.20;;
71091;SDS011;58751;50.708;7.134;2023-04-12T05:00:54;2.20;;;2.00;;
71091;SDS011;58751;50.708;7.134;2023-04-12T05:03:20;2.92;;;2.72;;
71091;SDS011;58751;50.708;7.134;2023-04-12T05:05:46;4.27;;;2.13;;
71091;SDS011;58751;50.708;7.134;2023-04-12T05:08:12;3.58;;;2.10;;
71091;SDS011;58751;50.708;7.134;2023-04-12T05:10:38;4.80;;;2.03;;
71091;SDS011;58751;50.708;7.134;2023-04-12T05:13:03;4.22;;;2.67;;
71091;SDS011;58751;50.708;7.134;2023-04-12T05:15:29;3.10;;;2.30;;
71091;SDS011;58751;50.708;7.134;2023-04-12T05:17:54;3.23;;;2.00;;
71091;SDS011;58751;50.708;7.134;2023-04-12T05:20:19;5.33;;;2.30;;
71091;SDS011;58751;50.708;7.134;2023-04-12T05:22:44;2.50;;;2.30;;
71091;SDS011;58751;50.708;7.134;2023-04-12T05:25:09;1.40;;;1.30;;
71091;SDS011;58751;50.708;7.134;2023-04-12T05:27:36;3.50;;;1.70;;
71091;SDS011;58751;50.708;7.134;2023-04-12T05:30:01;3.97;;;2.80;;
71091;SDS011;58751;50.708;7.134;2023-04-12T05:32:26;2.83;;;2.60;;
71091;SDS011;58751;50.708;7.134;2023-04-12T05:34:52;2.53;;;2.33;;
71091;SDS011;58751;50.708;7.134;2023-04-12T05:37:17;2.13;;;1.93;;
71091;SDS011;58751;50.708;7.134;2023-04-12T05:39:42;3.57;;;2.93;;
71091;SDS011;58751;50.708;7.134;2023-04-12T05:42:07;2.63;;;2.30;;
71091;SDS011;58751;50.708;7.134;2023-04-12T05:44:34;3.13;;;2.33;;
71091;SDS011;58751;50.708;7.134;2023-04-12T05:47:00;2.35;;;2.05;;
71091;SDS011;58751;50.708;7.134;2023-04-12T05:49:27;4.40;;;2.10;;
71091;SDS011;58751;50.708;7.134;2023-04-12T05:51:52;1.88;;;1.77;;
71091;SDS011;58751;50.708;7.134;2023-04-12T05:54:17;2.63;;;2.43;;
71091;SDS011;58751;50.708;7.134;2023-04-12T05:56:43;3.30;;;2.20;;
71091;SDS011;58751;50.708;7.134;2023-04-12T05:59:08;3.43;;;2.30;;
71091;SDS011;58751;50.708;7.134;2023-04-12T06:01:34;7.10;;;2.30;;
71091;SDS011;58751;50.708;7.134;2023-04-12T06:04:00;2.72;;;2.20;;
71091;SDS011;58751;50.708;7.134;2023-04-12T06:06:25;6.20;;;2.57;;
71091;SDS011;58751;50.708;7.134;2023-04-12T06:08:50;5.00;;;2.47;;
71091;SDS011;58751;50.708;7.134;2023-04-12T06:11:15;2.20;;;1.97;;
71091;SDS011;58751;50.708;7.134;2023-04-12T06:13:40;2.27;;;2.10;;
71091;SDS011;58751;50.708;7.134;2023-04-12T06:16:06;2.27;;;2.17;;
71091;SDS011;58751;50.708;7.134;2023-04-12T06:18:32;3.33;;;1.90;;
71091;SDS011;58751;50.708;7.134;2023-04-12T06:20:58;2.15;;;1.95;;
71091;SDS011;58751;50.708;7.134;2023-04-12T06:23:23;3.50;;;2.00;;
71091;SDS011;58751;50.708;7.134;2023-04-12T06:25:48;4.70;;;2.20;;
71091;SDS011;58751;50.708;7.134;2023-04-12T06:28:13;3.30;;;2.80;;
71091;SDS011;58751;50.708;7.134;2023-04-12T06:30:38;4.37;;;1.87;;
71091;SDS011;58751;50.708;7.134;2023-04-12T06:33:04;2.10;;;2.00;;
71091;SDS011;58751;50.708;7.134;2023-04-12T06:35:30;3.00;;;2.70;;
71091;SDS011;58751;50.708;7.134;2023-04-12T06:37:55;3.92;;;2.17;;
71091;SDS011;58751;50.708;7.134;2023-04-12T06:40:21;2.33;;;2.07;;
71091;SDS011;58751;50.708;7.134;2023-04-12T06:42:46;2.63;;;2.43;;
71091;SDS011;58751;50.708;7.134;2023-04-12T06:45:11;3.80;;;2.40;;
71091;SDS011;58751;50.708;7.134;2023-04-12T06:47:36;4.90;;;4.03;;
71091;SDS011;58751;50.708;7.134;2023-04-12T06:50:01;2.70;;;2.30;;
71091;SDS011;58751;50.708;7.134;2023-04-12T06:52:28;2.73;;;1.93;;
71091;SDS011;58751;50.708;7.134;2023-04-12T06:54:53;2.47;;;1.83;;
71091;SDS011;58751;50.708;7.134;2023-04-12T06:57:19;4.30;;;2.20;;
71091;SDS011;58751;50.708;7.134;2023-04-12T06:59:44;2.13;;;1.93;;
71091;SDS011;58751;50.708;7.134;2023-04-12T07:02:09;2.63;;;1.87;;
71091;SDS011;58751;50.708;7.134;2023-04-12T07:04:34;3.23;;;2.10;;
71091;SDS011;58751;50.708;7.134;2023-04-12T07:07:00;1.73;;;1.63;;
71091;SDS011;58751;50.708;7.134;2023-04-12T07:09:29;1.73;;;1.40;;
71091;SDS011;58751;50.708;7.134;2023-04-12T07:11:54;3.20;;;2.25;;
71091;SDS011;58751;50.708;7.134;2023-04-12T07:14:19;4.20;;;2.13;;
71091;SDS011;58751;50.708;7.134;2023-04-12T07:16:44;2.10;;;1.90;;
71091;SDS011;58751;50.708;7.134;2023-04-12T07:19:09;1.83;;;1.73;;
71091;SDS011;58751;50.708;7.134;2023-04-12T07:21:35;1.90;;;1.80;;
71091;SDS011;58751;50.708;7.134;2023-04-12T07:24:00;2.20;;;2.00;;
71091;SDS011;58751;50.708;7.134;2023-04-12T07:26:26;1.73;;;1.63;;
71091;SDS011;58751;50.708;7.134;2023-04-12T07:28:52;2.08;;;1.40;;
71091;SDS011;58751;50.708;7.134;2023-04-12T07:31:17;3.00;;;1.73;;
71091;SDS011;58751;50.708;7.134;2023-04-12T07:33:42;2.00;;;1.80;;
71091;SDS011;58751;50.708;7.134;2023-04-12T07:36:07;3.23;;;1.70;;
71091;SDS011;58751;50.708;7.134;2023-04-12T07:38:33;2.33;;;1.90;;
71091;SDS011;58751;50.708;7.134;2023-04-12T07:40:58;2.03;;;1.83;;
71091;SDS011;58751;50.708;7.134;2023-04-12T07:43:25;1.40;;;1.30;;
71091;SDS011;58751;50.708;7.134;2023-04-12T07:45:50;3.17;;;1.58;;
71091;SDS011;58751;50.708;7.134;2023-04-12T07:48:15;1.70;;;1.60;;
71091;SDS011;58751;50.708;7.134;2023-04-12T07:50:40;2.23;;;1.80;;
71091;SDS011;58751;50.708;7.134;2023-04-12T07:55:52;3.92;;;1.30;;
71091;SDS011;58751;50.708;7.134;2023-04-12T07:58:17;2.00;;;1.63;;
71091;SDS011;58751;50.708;7.134;2023-04-12T08:00:44;1.97;;;1.80;;
71091;SDS011;58751;50.708;7.134;2023-04-12T08:03:10;2.40;;;1.35;;
71091;SDS011;58751;50.708;7.134;2023-04-12T08:05:35;1.53;;;1.23;;
71091;SDS011;58751;50.708;7.134;2023-04-12T08:08:01;1.73;;;1.37;;
71091;SDS011;58751;50.708;7.134;2023-04-12T08:10:27;1.52;;;1.42;;
71091;SDS011;58751;50.708;7.134;2023-04-12T08:12:53;1.97;;;1.33;;
71091;SDS011;58751;50.708;7.134;2023-04-12T08:15:18;1.30;;;1.20;;
71091;SDS011;58751;50.708;7.134;2023-04-12T08:17:44;1.10;;;1.00;;
71091;SDS011;58751;50.708;7.134;2023-04-12T08:20:10;1.15;;;1.10;;
71091;SDS011;58751;50.708;7.134;2023-04-12T08:22:36;1.50;;;1.08;;
71091;SDS011;58751;50.708;7.134;2023-04-12T08:25:01;1.60;;;1.50;;
71091;SDS011;58751;50.708;7.134;2023-04-12T08:27:27;1.60;;;1.50;;
71091;SDS011;58751;50.708;7.134;2023-04-12T08:29:53;1.50;;;1.40;;
71091;SDS011;58751;50.708;7.134;2023-04-12T08:32:18;1.83;;;1.73;;
71091;SDS011;58751;50.708;7.134;2023-04-12T08:34:45;1.60;;;1.50;;
71091;SDS011;58751;50.708;7.134;2023-04-12T08:37:10;2.22;;;1.42;;
71091;SDS011;58751;50.708;7.134;2023-04-12T08:39:35;1.90;;;1.80;;
71091;SDS011;58751;50.708;7.134;2023-04-12T08:42:00;1.73;;;1.33;;
71091;SDS011;58751;50.708;7.134;2023-04-12T08:44:31;1.48;;;1.38;;
71091;SDS011;58751;50.708;7.134;2023-04-12T08:46:57;2.10;;;1.42;;
71091;SDS011;58751;50.708;7.134;2023-04-12T08:49:22;3.30;;;1.63;;
71091;SDS011;58751;50.708;7.134;2023-04-12T08:51:49;1.93;;;1.70;;
71091;SDS011;58751;50.708;7.134;2023-04-12T08:54:14;1.77;;;1.65;;
71091;SDS011;58751;50.708;7.134;2023-04-12T08:56:40;1.57;;;1.47;;
71091;SDS011;58751;50.708;7.134;2023-04-12T08:59:05;2.97;;;2.00;;
71091;SDS011;58751;50.708;7.134;2023-04-12T09:01:31;1.80;;;1.70;;
71091;SDS011;58751;50.708;7.134;2023-04-12T09:03:57;3.35;;;1.75;;
71091;SDS011;58751;50.708;7.134;2023-04-12T09:06:22;1.63;;;1.53;;
71091;SDS011;58751;50.708;7.134;2023-04-12T09:08:53;2.50;;;1.87;;
71091;SDS011;58751;50.708;7.134;2023-04-12T09:11:22;1.60;;;1.50;;
71091;SDS011;58751;50.708;7.134;2023-04-12T09:13:47;1.38;;;1.27;;
71091;SDS011;58751;50.708;7.134;2023-04-12T09:16:12;2.80;;;1.73;;
71091;SDS011;58751;50.708;7.134;2023-04-12T09:18:46;1.60;;;1.50;;
71091;SDS011;58751;50.708;7.134;2023-04-12T09:21:11;1.33;;;1.23;;
71091;SDS011;58751;50.708;7.134;2023-04-12T09:23:37;1.80;;;1.70;;
71091;SDS011;58751;50.708;7.134;2023-04-12T09:26:03;2.03;;;1.30;;
71091;SDS011;58751;50.708;7.134;2023-04-12T09:28:29;2.65;;;1.80;;
71091;SDS011;58751;50.708;7.134;2023-04-12T09:30:55;1.87;;;1.63;;
71091;SDS011;58751;50.708;7.134;2023-04-12T09:33:21;1.40;;;1.30;;
71091;SDS011;58751;50.708;7.134;2023-04-12T09:35:46;1.45;;;1.35;;
71091;SDS011;58751;50.708;7.134;2023-04-12T09:38:12;1.57;;;1.47;;
71091;SDS011;58751;50.708;7.134;2023-04-12T09:40:37;1.97;;;1.77;;
71091;SDS011;58751;50.708;7.134;2023-04-12T09:43:04;1.13;;;1.03;;
71091;SDS011;58751;50.708;7.134;2023-04-12T09:45:32;1.83;;;1.50;;
71091;SDS011;58751;50.708;7.134;2023-04-12T09:47:57;2.47;;;1.30;;
71091;SDS011;58751;50.708;7.134;2023-04-12T09:50:23;1.90;;;1.10;;
71091;SDS011;58751;50.708;7.134;2023-04-12T09:52:49;3.33;;;1.27;;
71091;SDS011;58751;50.708;7.134;2023-04-12T09:55:14;1.53;;;1.43;;
71091;SDS011;58751;50.708;7.134;2023-04-12T09:57:40;1.10;;;1.03;;
71091;SDS011;58751;50.708;7.134;2023-04-12T10:00:08;2.67;;;1.63;;
71091;SDS011;58751;50.708;7.134;2023-04-12T10:02:33;3.35;;;1.48;;
71091;SDS011;58751;50.708;7.134;2023-04-12T10:04:58;3.33;;;1.70;;
71091;SDS011;58751;50.708;7.134;2023-04-12T10:07:24;1.87;;;1.50;;
71091;SDS011;58751;50.708;7.134;2023-04-12T10:09:49;1.63;;;1.40;;
71091;SDS011;58751;50.708;7.134;2023-04-12T10:12:14;1.40;;;1.30;;
71091;SDS011;58751;50.708;7.134;2023-04-12T10:14:40;1.53;;;1.43;;
71091;SDS011;58751;50.708;7.134;2023-04-12T10:17:07;2.33;;;1.70;;
71091;SDS011;58751;50.708;7.134;2023-04-12T10:19:33;1.60;;;1.50;;
71091;SDS011;58751;50.708;7.134;2023-04-12T10:21:59;1.37;;;1.27;;
71091;SDS011;58751;50.708;7.134;2023-04-12T10:24:24;1.47;;;1.37;;
71091;SDS011;58751;50.708;7.134;2023-04-12T10:26:50;2.45;;;1.60;;
71091;SDS011;58751;50.708;7.134;2023-04-12T10:29:23;2.07;;;1.93;;
71091;SDS011;58751;50.708;7.134;2023-04-12T10:31:48;1.70;;;1.60;;
71091;SDS011;58751;50.708;7.134;2023-04-12T10:34:15;1.40;;;1.30;;
71091;SDS011;58751;50.708;7.134;2023-04-12T10:36:50;2.00;;;1.90;;
71091;SDS011;58751;50.708;7.134;2023-04-12T10:39:15;1.60;;;1.50;;
71091;SDS011;58751;50.708;7.134;2023-04-12T10:41:45;2.00;;;1.87;;
71091;SDS011;58751;50.708;7.134;2023-04-12T10:44:32;2.80;;;1.52;;
71091;SDS011;58751;50.708;7.134;2023-04-12T10:46:57;1.30;;;1.20;;
71091;SDS011;58751;50.708;7.134;2023-04-12T10:49:22;1.27;;;1.20;;
71091;SDS011;58751;50.708;7.134;2023-04-12T10:54:40;1.33;;;1.23;;
71091;SDS011;58751;50.708;7.134;2023-04-12T10:57:05;1.07;;;0.97;;
71091;SDS011;58751;50.708;7.134;2023-04-12T11:02:13;1.00;;;0.90;;
71091;SDS011;58751;50.708;7.134;2023-04-12T11:05:01;1.57;;;1.00;;
71091;SDS011;58751;50.708;7.134;2023-04-12T11:07:23;0.83;;;0.83;;
71091;SDS011;58751;50.708;7.134;2023-04-12T11:10:02;1.02;;;0.93;;
71091;SDS011;58751;50.708;7.134;2023-04-12T11:12:28;1.75;;;1.63;;
71091;SDS011;58751;50.708;7.134;2023-04-12T11:14:55;1.93;;;1.30;;
71091;SDS011;58751;50.708;7.134;2023-04-12T11:17:25;0.73;;;0.73;;
71091;SDS011;58751;50.708;7.134;2023-04-12T11:19:51;1.00;;;0.95;;
71091;SDS011;58751;50.708;7.134;2023-04-12T11:22:17;1.30;;;0.90;;
71091;SDS011;58751;50.708;7.134;2023-04-12T11:24:43;0.73;;;0.73;;
71091;SDS011;58751;50.708;7.134;2023-04-12T11:27:08;0.75;;;0.75;;
71091;SDS011;58751;50.708;7.134;2023-04-12T11:29:34;1.53;;;1.03;;
71091;SDS011;58751;50.708;7.134;2023-04-12T11:32:01;0.80;;;0.77;;
71091;SDS011;58751;50.708;7.134;2023-04-12T11:34:30;1.95;;;1.40;;
71091;SDS011;58751;50.708;7.134;2023-04-12T11:36:56;1.30;;;1.20;;
71091;SDS011;58751;50.708;7.134;2023-04-12T11:39:22;1.85;;;1.70;;
71091;SDS011;58751;50.708;7.134;2023-04-12T11:41:47;2.10;;;1.60;;
71091;SDS011;58751;50.708;7.134;2023-04-12T11:44:13;12.97;;;2.90;;
71091;SDS011;58751;50.708;7.134;2023-04-12T11:46:38;1.67;;;1.57;;
71091;SDS011;58751;50.708;7.134;2023-04-12T11:49:04;7.13;;;3.60;;
71091;SDS011;58751;50.708;7.134;2023-04-12T11:51:30;2.27;;;2.07;;
71091;SDS011;58751;50.708;7.134;2023-04-12T11:53:55;1.45;;;1.35;;
71091;SDS011;58751;50.708;7.134;2023-04-12T11:56:21;1.50;;;1.40;;
71091;SDS011;58751;50.708;7.134;2023-04-12T11:58:46;3.10;;;1.80;;
71091;SDS011;58751;50.708;7.134;2023-04-12T12:01:11;2.03;;;1.47;;
71091;SDS011;58751;50.708;7.134;2023-04-12T12:03:37;1.30;;;1.27;;
71091;SDS011;58751;50.708;7.134;2023-04-12T12:06:03;2.47;;;1.80;;
71091;SDS011;58751;50.708;7.134;2023-04-12T12:08:29;2.10;;;1.30;;
71091;SDS011;58751;50.708;7.134;2023-04-12T12:10:54;1.27;;;1.27;;
71091;SDS011;58751;50.708;7.134;2023-04-12T12:13:20;1.73;;;1.50;;
71091;SDS011;58751;50.708;7.134;2023-04-12T12:15:45;2.03;;;1.33;;
71091;SDS011;58751;50.708;7.134;2023-04-12T12:18:10;1.20;;;1.10;;
71091;SDS011;58751;50.708;7.134;2023-04-12T12:20:39;3.23;;;1.70;;
71091;SDS011;58751;50.708;7.134;2023-04-12T12:23:04;2.13;;;1.93;;
71091;SDS011;58751;50.708;7.134;2023-04-12T12:25:31;3.30;;;1.33;;
71091;SDS011;58751;50.708;7.134;2023-04-12T12:27:56;2.70;;;1.50;;
71091;SDS011;58751;50.708;7.134;2023-04-12T12:30:21;3.17;;;1.30;;
71091;SDS011;58751;50.708;7.134;2023-04-12T12:32:48;3.37;;;2.00;;
71091;SDS011;58751;50.708;7.134;2023-04-12T12:35:13;1.73;;;1.40;;
71091;SDS011;58751;50.708;7.134;2023-04-12T12:37:46;2.40;;;1.03;;
71091;SDS011;58751;50.708;7.134;2023-04-12T12:40:12;1.77;;;1.67;;
71091;SDS011;58751;50.708;7.134;2023-04-12T12:42:45;2.07;;;1.27;;
71091;SDS011;58751;50.708;7.134;2023-04-12T12:45:20;2.10;;;1.33;;
71091;SDS011;58751;50.708;7.134;2023-04-12T12:47:49;1.40;;;1.20;;
71091;SDS011;58751;50.708;7.134;2023-04-12T12:50:15;1.67;;;1.50;;
71091;SDS011;58751;50.708;7.134;2023-04-12T12:52:40;3.37;;;1.33;;
71091;SDS011;58751;50.708;7.134;2023-04-12T12:55:06;2.80;;;1.33;;
71091;SDS011;58751;50.708;7.134;2023-04-12T12:57:31;2.20;;;1.30;;
71091;SDS011;58751;50.708;7.134;2023-04-12T12:59:57;2.30;;;1.30;;
71091;SDS011;58751;50.708;7.134;2023-04-12T13:02:23;0.80;;;0.80;;
71091;SDS011;58751;50.708;7.134;2023-04-12T13:04:48;2.40;;;1.10;;
71091;SDS011;58751;50.708;7.134;2023-04-12T13:07:14;1.90;;;1.80;;
71091;SDS011;58751;50.708;7.134;2023-04-12T13:09:39;1.60;;;1.03;;
71091;SDS011;58751;50.708;7.134;2023-04-12T13:12:04;1.40;;;1.30;;
71091;SDS011;58751;50.708;7.134;2023-04-12T13:14:29;4.40;;;1.50;;
71091;SDS011;58751;50.708;7.134;2023-04-12T13:16:54;1.10;;;1.00;;
71091;SDS011;58751;50.708;7.134;2023-04-12T13:19:21;2.00;;;1.17;;
71091;SDS011;58751;50.708;7.134;2023-04-12T13:21:46;0.70;;;0.70;;
71091;SDS011;58751;50.708;7.134;2023-04-12T13:24:11;1.03;;;0.93;;
71091;SDS011;58751;50.708;7.134;2023-04-12T13:26:37;1.70;;;1.20;;
71091;SDS011;58751;50.708;7.134;2023-04-12T13:29:02;0.93;;;0.80;;
71091;SDS011;58751;50.708;7.134;2023-04-12T13:31:27;2.03;;;1.00;;
71091;SDS011;58751;50.708;7.134;2023-04-12T13:33:52;1.27;;;0.70;;
71091;SDS011;58751;50.708;7.134;2023-04-12T13:36:19;1.27;;;0.90;;
71091;SDS011;58751;50.708;7.134;2023-04-12T13:38:44;0.70;;;0.70;;
71091;SDS011;58751;50.708;7.134;2023-04-12T13:41:09;0.90;;;0.90;;
71091;SDS011;58751;50.708;7.134;2023-04-12T13:43:34;3.30;;;1.53;;
71091;SDS011;58751;50.708;7.134;2023-04-12T13:46:00;1.80;;;1.57;;
71091;SDS011;58751;50.708;7.134;2023-04-12T13:48:25;2.53;;;1.57;;
71091;SDS011;58751;50.708;7.134;2023-04-12T13:50:50;1.17;;;0.87;;
71091;SDS011;58751;50.708;7.134;2023-04-12T13:53:17;2.20;;;1.30;;
71091;SDS011;58751;50.708;7.134;2023-04-12T13:55:42;1.47;;;1.20;;
71091;SDS011;58751;50.708;7.134;2023-04-12T13:58:07;3.00;;;1.27;;
71091;SDS011;58751;50.708;7.134;2023-04-12T14:00:32;4.27;;;3.53;;
71091;SDS011;58751;50.708;7.134;2023-04-12T14:02:57;4.50;;;3.40;;
71091;SDS011;58751;50.708;7.134;2023-04-12T14:05:23;0.90;;;0.90;;
71091;SDS011;58751;50.708;7.134;2023-04-12T14:07:48;1.70;;;1.20;;
71091;SDS011;58751;50.708;7.134;2023-04-12T14:10:14;1.00;;;0.87;;
71091;SDS011;58751;50.708;7.134;2023-04-12T14:12:40;0.50;;;0.40;;
71091;SDS011;58751;50.708;7.134;2023-04-12T14:15:05;1.30;;;0.87;;
71091;SDS011;58751;50.708;7.134;2023-04-12T14:17:31;1.07;;;0.70;;
71091;SDS011;58751;50.708;7.134;2023-04-12T14:19:56;1.93;;;0.70;;
71091;SDS011;58751;50.708;7.134;2023-04-12T14:22:21;1.53;;;0.80;;
71091;SDS011;58751;50.708;7.134;2023-04-12T14:24:46;0.80;;;0.50;;
71091;SDS011;58751;50.708;7.134;2023-04-12T14:27:13;0.87;;;0.53;;
71091;SDS011;58751;50.708;7.134;2023-04-12T14:29:38;2.33;;;0.80;;
71091;SDS011;58751;50.708;7.134;2023-04-12T14:32:03;1.57;;;0.80;;
71091;SDS011;58751;50.708;7.134;2023-04-12T14:34:29;2.40;;;0.60;;
71091;SDS011;58751;50.708;7.134;2023-04-12T14:36:54;1.70;;;0.83;;
71091;SDS011;58751;50.708;7.134;2023-04-12T14:39:19;2.43;;;0.90;;
71091;SDS011;58751;50.708;7.134;2023-04-12T14:41:44;0.60;;;0.50;;
71091;SDS011;58751;50.708;7.134;2023-04-12T14:44:11;1.13;;;0.60;;
71091;SDS011;58751;50.708;7.134;2023-04-12T14:46:36;2.20;;;0.60;;
71091;SDS011;58751;50.708;7.134;2023-04-12T14:49:01;1.40;;;0.50;;